Bob Hope Airport Burbank US
ICAO: KBUR
IATA: BUR
Category: Medium
Scheduled Services: Yes

Elevation: 778 ft
TransAlt. 18000 ft.

Airport Communications:
SOCAL APP/DEP:120.4
ATIS:134.5
CLNC DEL:118
GND:123.9
HAWTHORNE RDO:122.35
TWR:118.7
UNICOM:122.95

KBUR Zoom In..

If you have problems with the map follow the link
https://www.worldairports.se/pages/airport.php?
ICAO=KBUR

Runways:

(A) RW 08 length 5802 ft width 150 ft
ILS 109.50 / hdg 76

(B) RW 15 length 6885 ft width 150 ft
---- / hdg 152

(C) RW 26 length 5802 ft width 150 ft
---- / hdg 256

(D) RW 33 length 6885 ft width 150 ft
---- / hdg 332

Location; KBUR
Day. 18 / Time. 23.53 Zulu
* Altimeter: 29.98
* Temperature: 27° c. 80.6°f.
* Wind from: 140° Speed 07 kn.
Dewpoint: 01° c.
Visibility: 10 Statute Miles.
Clouds: Clear (automated report).

KBUR 182353Z 14007KT 10SM CLR 27/01 A2998 RMK AO2 SLP141 T02720006 10300 20244 55002 $


Wind From 140°
Speed 07 kn.

 
 
jpsmedia.com for Web Design worldairports.se 2018   terms of use